sensor_id;sensor_type;location;lat;lon;timestamp;P1;durP1;ratioP1;P2;durP2;ratioP2
18084;SDS011;9169;44.492;11.372;2023-05-19T00:01:00;37.00;;;3.77;;
18084;SDS011;9169;44.492;11.372;2023-05-19T00:03:29;34.00;;;3.67;;
18084;SDS011;9169;44.492;11.372;2023-05-19T00:06:00;36.93;;;4.30;;
18084;SDS011;9169;44.492;11.372;2023-05-19T00:08:29;35.40;;;4.40;;
18084;SDS011;9169;44.492;11.372;2023-05-19T00:10:59;36.43;;;4.30;;
18084;SDS011;9169;44.492;11.372;2023-05-19T00:13:28;40.30;;;3.73;;
18084;SDS011;9169;44.492;11.372;2023-05-19T00:15:58;36.57;;;4.23;;
18084;SDS011;9169;44.492;11.372;2023-05-19T00:18:27;35.37;;;4.03;;
18084;SDS011;9169;44.492;11.372;2023-05-19T00:20:56;31.07;;;3.90;;
18084;SDS011;9169;44.492;11.372;2023-05-19T00:23:25;31.80;;;3.73;;
18084;SDS011;9169;44.492;11.372;2023-05-19T00:25:53;29.83;;;3.27;;
18084;SDS011;9169;44.492;11.372;2023-05-19T00:28:22;31.00;;;3.50;;
18084;SDS011;9169;44.492;11.372;2023-05-19T00:30:53;32.13;;;3.80;;
18084;SDS011;9169;44.492;11.372;2023-05-19T00:33:22;34.37;;;3.80;;
18084;SDS011;9169;44.492;11.372;2023-05-19T00:35:50;30.47;;;3.30;;
18084;SDS011;9169;44.492;11.372;2023-05-19T00:38:19;30.37;;;3.63;;
18084;SDS011;9169;44.492;11.372;2023-05-19T00:40:47;31.53;;;3.70;;
18084;SDS011;9169;44.492;11.372;2023-05-19T00:43:16;29.70;;;3.27;;
18084;SDS011;9169;44.492;11.372;2023-05-19T00:45:46;30.37;;;3.70;;
18084;SDS011;9169;44.492;11.372;2023-05-19T00:48:16;31.83;;;4.00;;
18084;SDS011;9169;44.492;11.372;2023-05-19T00:50:46;28.67;;;3.37;;
18084;SDS011;9169;44.492;11.372;2023-05-19T00:53:16;30.60;;;3.27;;
18084;SDS011;9169;44.492;11.372;2023-05-19T00:55:45;30.30;;;3.60;;
18084;SDS011;9169;44.492;11.372;2023-05-19T00:58:15;30.10;;;4.23;;
18084;SDS011;9169;44.492;11.372;2023-05-19T01:00:45;29.50;;;3.27;;
18084;SDS011;9169;44.492;11.372;2023-05-19T01:03:13;29.80;;;3.40;;
18084;SDS011;9169;44.492;11.372;2023-05-19T01:05:46;30.40;;;3.67;;
18084;SDS011;9169;44.492;11.372;2023-05-19T01:08:15;30.60;;;3.90;;
18084;SDS011;9169;44.492;11.372;2023-05-19T01:10:44;30.57;;;3.60;;
18084;SDS011;9169;44.492;11.372;2023-05-19T01:13:12;34.30;;;4.00;;
18084;SDS011;9169;44.492;11.372;2023-05-19T01:15:44;32.67;;;4.03;;
18084;SDS011;9169;44.492;11.372;2023-05-19T01:18:28;32.93;;;3.70;;
18084;SDS011;9169;44.492;11.372;2023-05-19T01:21:10;32.30;;;3.20;;
18084;SDS011;9169;44.492;11.372;2023-05-19T01:24:05;33.97;;;4.20;;
18084;SDS011;9169;44.492;11.372;2023-05-19T01:26:55;36.23;;;4.00;;
18084;SDS011;9169;44.492;11.372;2023-05-19T01:29:41;37.67;;;4.27;;
18084;SDS011;9169;44.492;11.372;2023-05-19T01:32:15;38.90;;;4.40;;
18084;SDS011;9169;44.492;11.372;2023-05-19T01:34:47;45.37;;;4.00;;
18084;SDS011;9169;44.492;11.372;2023-05-19T01:37:17;37.87;;;4.53;;
18084;SDS011;9169;44.492;11.372;2023-05-19T01:39:48;38.37;;;3.67;;
18084;SDS011;9169;44.492;11.372;2023-05-19T01:42:17;39.43;;;4.30;;
18084;SDS011;9169;44.492;11.372;2023-05-19T01:44:47;39.00;;;4.33;;
18084;SDS011;9169;44.492;11.372;2023-05-19T01:47:18;37.07;;;4.10;;
18084;SDS011;9169;44.492;11.372;2023-05-19T01:49:46;40.93;;;4.40;;
18084;SDS011;9169;44.492;11.372;2023-05-19T01:52:15;40.50;;;4.60;;
18084;SDS011;9169;44.492;11.372;2023-05-19T01:54:43;37.30;;;3.67;;
18084;SDS011;9169;44.492;11.372;2023-05-19T01:57:14;40.37;;;3.90;;
18084;SDS011;9169;44.492;11.372;2023-05-19T01:59:50;38.77;;;3.90;;
18084;SDS011;9169;44.492;11.372;2023-05-19T02:02:29;40.03;;;4.03;;
18084;SDS011;9169;44.492;11.372;2023-05-19T02:05:07;41.73;;;4.03;;
18084;SDS011;9169;44.492;11.372;2023-05-19T02:07:40;38.47;;;3.90;;
18084;SDS011;9169;44.492;11.372;2023-05-19T02:10:16;42.67;;;3.80;;
18084;SDS011;9169;44.492;11.372;2023-05-19T02:12:49;38.33;;;4.13;;
18084;SDS011;9169;44.492;11.372;2023-05-19T02:15:21;38.07;;;4.03;;
18084;SDS011;9169;44.492;11.372;2023-05-19T02:17:54;38.93;;;3.63;;
18084;SDS011;9169;44.492;11.372;2023-05-19T02:20:25;37.17;;;3.97;;
18084;SDS011;9169;44.492;11.372;2023-05-19T02:22:54;37.73;;;4.00;;
18084;SDS011;9169;44.492;11.372;2023-05-19T02:25:23;36.43;;;4.10;;
18084;SDS011;9169;44.492;11.372;2023-05-19T02:27:51;38.20;;;3.80;;
18084;SDS011;9169;44.492;11.372;2023-05-19T02:30:21;39.23;;;3.87;;
18084;SDS011;9169;44.492;11.372;2023-05-19T02:32:50;35.67;;;3.90;;
18084;SDS011;9169;44.492;11.372;2023-05-19T02:35:21;35.27;;;3.90;;
18084;SDS011;9169;44.492;11.372;2023-05-19T02:37:49;33.63;;;3.30;;
18084;SDS011;9169;44.492;11.372;2023-05-19T02:40:18;35.03;;;3.60;;
18084;SDS011;9169;44.492;11.372;2023-05-19T02:42:46;34.20;;;3.70;;
18084;SDS011;9169;44.492;11.372;2023-05-19T02:45:15;35.67;;;4.17;;
18084;SDS011;9169;44.492;11.372;2023-05-19T02:47:44;34.30;;;4.00;;
18084;SDS011;9169;44.492;11.372;2023-05-19T02:50:12;37.50;;;3.80;;
18084;SDS011;9169;44.492;11.372;2023-05-19T02:52:42;37.67;;;3.50;;
18084;SDS011;9169;44.492;11.372;2023-05-19T02:55:11;34.80;;;3.97;;
18084;SDS011;9169;44.492;11.372;2023-05-19T02:57:42;34.70;;;3.63;;
18084;SDS011;9169;44.492;11.372;2023-05-19T03:00:12;32.03;;;3.40;;
18084;SDS011;9169;44.492;11.372;2023-05-19T03:02:42;35.07;;;3.60;;
18084;SDS011;9169;44.492;11.372;2023-05-19T03:05:11;37.13;;;4.10;;
18084;SDS011;9169;44.492;11.372;2023-05-19T03:07:43;37.03;;;4.23;;
18084;SDS011;9169;44.492;11.372;2023-05-19T03:10:12;36.20;;;4.20;;
18084;SDS011;9169;44.492;11.372;2023-05-19T03:12:40;40.00;;;4.43;;
18084;SDS011;9169;44.492;11.372;2023-05-19T03:15:09;39.90;;;4.20;;
18084;SDS011;9169;44.492;11.372;2023-05-19T03:17:40;38.63;;;3.93;;
18084;SDS011;9169;44.492;11.372;2023-05-19T03:20:09;44.70;;;5.13;;
18084;SDS011;9169;44.492;11.372;2023-05-19T03:22:38;43.40;;;5.80;;
18084;SDS011;9169;44.492;11.372;2023-05-19T03:25:08;46.87;;;5.20;;
18084;SDS011;9169;44.492;11.372;2023-05-19T03:27:37;43.97;;;5.37;;
18084;SDS011;9169;44.492;11.372;2023-05-19T03:30:06;44.27;;;5.80;;
18084;SDS011;9169;44.492;11.372;2023-05-19T03:32:48;46.20;;;5.03;;
18084;SDS011;9169;44.492;11.372;2023-05-19T03:35:17;47.13;;;4.70;;
18084;SDS011;9169;44.492;11.372;2023-05-19T03:37:46;46.70;;;5.40;;
18084;SDS011;9169;44.492;11.372;2023-05-19T03:40:16;47.90;;;5.57;;
18084;SDS011;9169;44.492;11.372;2023-05-19T03:42:45;49.90;;;5.67;;
18084;SDS011;9169;44.492;11.372;2023-05-19T03:45:15;52.83;;;5.17;;
18084;SDS011;9169;44.492;11.372;2023-05-19T03:47:46;51.43;;;5.17;;
18084;SDS011;9169;44.492;11.372;2023-05-19T03:50:33;51.53;;;5.70;;
18084;SDS011;9169;44.492;11.372;2023-05-19T03:53:25;59.03;;;5.53;;
18084;SDS011;9169;44.492;11.372;2023-05-19T03:55:57;51.57;;;5.60;;
18084;SDS011;9169;44.492;11.372;2023-05-19T03:58:26;49.90;;;4.70;;
18084;SDS011;9169;44.492;11.372;2023-05-19T04:00:55;51.10;;;5.20;;
18084;SDS011;9169;44.492;11.372;2023-05-19T04:03:24;49.00;;;4.93;;
18084;SDS011;9169;44.492;11.372;2023-05-19T04:05:52;47.97;;;4.13;;
18084;SDS011;9169;44.492;11.372;2023-05-19T04:08:21;49.47;;;4.80;;
18084;SDS011;9169;44.492;11.372;2023-05-19T04:10:49;52.53;;;5.27;;
18084;SDS011;9169;44.492;11.372;2023-05-19T04:13:19;51.90;;;4.90;;
18084;SDS011;9169;44.492;11.372;2023-05-19T04:15:48;55.03;;;4.93;;
18084;SDS011;9169;44.492;11.372;2023-05-19T04:18:17;50.37;;;5.37;;
18084;SDS011;9169;44.492;11.372;2023-05-19T04:20:45;51.73;;;5.33;;
18084;SDS011;9169;44.492;11.372;2023-05-19T04:23:14;52.63;;;5.70;;
18084;SDS011;9169;44.492;11.372;2023-05-19T04:25:43;53.83;;;5.87;;
18084;SDS011;9169;44.492;11.372;2023-05-19T04:28:14;52.47;;;5.40;;
18084;SDS011;9169;44.492;11.372;2023-05-19T04:30:44;53.03;;;4.53;;
18084;SDS011;9169;44.492;11.372;2023-05-19T04:33:13;53.20;;;5.40;;
18084;SDS011;9169;44.492;11.372;2023-05-19T04:35:42;52.43;;;4.23;;
18084;SDS011;9169;44.492;11.372;2023-05-19T04:38:11;45.07;;;4.27;;
18084;SDS011;9169;44.492;11.372;2023-05-19T04:40:45;45.30;;;4.70;;
18084;SDS011;9169;44.492;11.372;2023-05-19T04:43:15;45.50;;;4.50;;
18084;SDS011;9169;44.492;11.372;2023-05-19T04:45:46;45.93;;;4.43;;
18084;SDS011;9169;44.492;11.372;2023-05-19T04:48:17;44.00;;;4.53;;
18084;SDS011;9169;44.492;11.372;2023-05-19T04:50:47;45.33;;;4.47;;
18084;SDS011;9169;44.492;11.372;2023-05-19T04:53:17;46.30;;;4.67;;
18084;SDS011;9169;44.492;11.372;2023-05-19T04:55:48;46.70;;;4.20;;
18084;SDS011;9169;44.492;11.372;2023-05-19T04:58:16;44.77;;;4.53;;
18084;SDS011;9169;44.492;11.372;2023-05-19T05:00:47;46.00;;;4.40;;
18084;SDS011;9169;44.492;11.372;2023-05-19T05:03:16;45.20;;;4.53;;
18084;SDS011;9169;44.492;11.372;2023-05-19T05:05:49;45.97;;;4.60;;
18084;SDS011;9169;44.492;11.372;2023-05-19T05:08:18;45.63;;;4.50;;
18084;SDS011;9169;44.492;11.372;2023-05-19T05:10:49;48.43;;;4.50;;
18084;SDS011;9169;44.492;11.372;2023-05-19T05:13:20;48.73;;;4.97;;
18084;SDS011;9169;44.492;11.372;2023-05-19T05:15:53;45.57;;;4.80;;
18084;SDS011;9169;44.492;11.372;2023-05-19T05:18:22;45.03;;;5.00;;
18084;SDS011;9169;44.492;11.372;2023-05-19T05:20:51;45.20;;;4.10;;
18084;SDS011;9169;44.492;11.372;2023-05-19T05:23:21;46.20;;;5.20;;
18084;SDS011;9169;44.492;11.372;2023-05-19T05:25:50;44.90;;;4.10;;
18084;SDS011;9169;44.492;11.372;2023-05-19T05:28:20;45.57;;;4.30;;
18084;SDS011;9169;44.492;11.372;2023-05-19T05:30:49;45.03;;;4.23;;
18084;SDS011;9169;44.492;11.372;2023-05-19T05:33:18;45.53;;;4.57;;
18084;SDS011;9169;44.492;11.372;2023-05-19T05:35:47;47.73;;;4.10;;
18084;SDS011;9169;44.492;11.372;2023-05-19T05:38:16;46.30;;;4.60;;
18084;SDS011;9169;44.492;11.372;2023-05-19T05:40:45;44.73;;;4.50;;
18084;SDS011;9169;44.492;11.372;2023-05-19T05:43:14;47.20;;;4.93;;
18084;SDS011;9169;44.492;11.372;2023-05-19T05:45:48;46.97;;;4.30;;
18084;SDS011;9169;44.492;11.372;2023-05-19T05:48:18;47.30;;;5.00;;
18084;SDS011;9169;44.492;11.372;2023-05-19T05:50:48;48.77;;;4.83;;
18084;SDS011;9169;44.492;11.372;2023-05-19T05:53:21;47.33;;;4.70;;
18084;SDS011;9169;44.492;11.372;2023-05-19T05:55:53;52.30;;;5.77;;
18084;SDS011;9169;44.492;11.372;2023-05-19T05:58:26;48.60;;;5.07;;
18084;SDS011;9169;44.492;11.372;2023-05-19T06:00:55;49.33;;;4.30;;
18084;SDS011;9169;44.492;11.372;2023-05-19T06:03:26;46.73;;;5.13;;
18084;SDS011;9169;44.492;11.372;2023-05-19T06:05:58;49.80;;;5.03;;
18084;SDS011;9169;44.492;11.372;2023-05-19T06:08:27;46.60;;;5.20;;
18084;SDS011;9169;44.492;11.372;2023-05-19T06:10:59;47.47;;;5.40;;
18084;SDS011;9169;44.492;11.372;2023-05-19T06:13:35;49.27;;;5.63;;
18084;SDS011;9169;44.492;11.372;2023-05-19T06:16:09;54.77;;;6.50;;
18084;SDS011;9169;44.492;11.372;2023-05-19T06:18:47;51.00;;;6.17;;
18084;SDS011;9169;44.492;11.372;2023-05-19T06:21:15;51.73;;;5.90;;
18084;SDS011;9169;44.492;11.372;2023-05-19T06:23:44;52.03;;;5.43;;
18084;SDS011;9169;44.492;11.372;2023-05-19T06:26:12;51.00;;;6.00;;
18084;SDS011;9169;44.492;11.372;2023-05-19T06:28:41;55.33;;;6.10;;
18084;SDS011;9169;44.492;11.372;2023-05-19T06:31:10;51.83;;;6.00;;
18084;SDS011;9169;44.492;11.372;2023-05-19T06:33:44;52.93;;;5.87;;
18084;SDS011;9169;44.492;11.372;2023-05-19T06:36:16;49.20;;;6.47;;
18084;SDS011;9169;44.492;11.372;2023-05-19T06:38:45;52.47;;;6.80;;
18084;SDS011;9169;44.492;11.372;2023-05-19T06:41:14;52.90;;;6.80;;
18084;SDS011;9169;44.492;11.372;2023-05-19T06:43:45;75.07;;;9.20;;
18084;SDS011;9169;44.492;11.372;2023-05-19T06:46:14;57.63;;;7.90;;
18084;SDS011;9169;44.492;11.372;2023-05-19T06:48:43;58.73;;;7.00;;
18084;SDS011;9169;44.492;11.372;2023-05-19T06:51:12;55.33;;;7.23;;
18084;SDS011;9169;44.492;11.372;2023-05-19T06:53:48;54.23;;;6.37;;
18084;SDS011;9169;44.492;11.372;2023-05-19T06:56:17;50.93;;;6.67;;
18084;SDS011;9169;44.492;11.372;2023-05-19T06:58:45;56.70;;;7.10;;
18084;SDS011;9169;44.492;11.372;2023-05-19T07:01:14;53.97;;;7.80;;
18084;SDS011;9169;44.492;11.372;2023-05-19T07:03:48;109.43;;;14.17;;
18084;SDS011;9169;44.492;11.372;2023-05-19T07:06:16;58.20;;;7.23;;
18084;SDS011;9169;44.492;11.372;2023-05-19T07:08:45;57.40;;;7.00;;
18084;SDS011;9169;44.492;11.372;2023-05-19T07:11:15;59.87;;;8.33;;
18084;SDS011;9169;44.492;11.372;2023-05-19T07:13:44;51.97;;;6.50;;
18084;SDS011;9169;44.492;11.372;2023-05-19T07:16:18;53.73;;;6.90;;
18084;SDS011;9169;44.492;11.372;2023-05-19T07:18:47;53.77;;;7.67;;
18084;SDS011;9169;44.492;11.372;2023-05-19T07:21:15;53.50;;;7.63;;
18084;SDS011;9169;44.492;11.372;2023-05-19T07:23:45;53.33;;;7.80;;
18084;SDS011;9169;44.492;11.372;2023-05-19T07:26:15;53.00;;;6.83;;
18084;SDS011;9169;44.492;11.372;2023-05-19T07:28:44;53.20;;;7.30;;
18084;SDS011;9169;44.492;11.372;2023-05-19T07:31:12;56.83;;;8.63;;
18084;SDS011;9169;44.492;11.372;2023-05-19T07:33:41;53.37;;;7.87;;
18084;SDS011;9169;44.492;11.372;2023-05-19T07:36:09;55.30;;;8.00;;
18084;SDS011;9169;44.492;11.372;2023-05-19T07:38:38;55.17;;;7.60;;
18084;SDS011;9169;44.492;11.372;2023-05-19T07:41:06;56.50;;;8.20;;
18084;SDS011;9169;44.492;11.372;2023-05-19T07:43:36;55.60;;;8.30;;
18084;SDS011;9169;44.492;11.372;2023-05-19T07:46:05;57.53;;;9.57;;
18084;SDS011;9169;44.492;11.372;2023-05-19T07:48:33;59.37;;;8.37;;
18084;SDS011;9169;44.492;11.372;2023-05-19T07:51:02;56.97;;;8.23;;
18084;SDS011;9169;44.492;11.372;2023-05-19T07:53:31;59.87;;;12.17;;
18084;SDS011;9169;44.492;11.372;2023-05-19T07:55:59;58.33;;;8.47;;
18084;SDS011;9169;44.492;11.372;2023-05-19T07:58:28;56.00;;;8.87;;
18084;SDS011;9169;44.492;11.372;2023-05-19T08:00:58;60.93;;;9.67;;
18084;SDS011;9169;44.492;11.372;2023-05-19T08:03:27;55.57;;;9.20;;
18084;SDS011;9169;44.492;11.372;2023-05-19T08:05:56;58.43;;;9.60;;
18084;SDS011;9169;44.492;11.372;2023-05-19T08:08:25;58.00;;;9.80;;
18084;SDS011;9169;44.492;11.372;2023-05-19T08:10:53;54.57;;;8.30;;
18084;SDS011;9169;44.492;11.372;2023-05-19T08:13:22;55.87;;;9.47;;
18084;SDS011;9169;44.492;11.372;2023-05-19T08:15:51;58.27;;;10.70;;
18084;SDS011;9169;44.492;11.372;2023-05-19T08:18:26;60.50;;;9.60;;
18084;SDS011;9169;44.492;11.372;2023-05-19T08:20:55;56.97;;;9.80;;
18084;SDS011;9169;44.492;11.372;2023-05-19T08:23:24;54.93;;;9.00;;
18084;SDS011;9169;44.492;11.372;2023-05-19T08:25:53;58.43;;;9.90;;
18084;SDS011;9169;44.492;11.372;2023-05-19T08:28:21;57.20;;;8.83;;
18084;SDS011;9169;44.492;11.372;2023-05-19T08:30:50;55.90;;;8.87;;
18084;SDS011;9169;44.492;11.372;2023-05-19T08:33:19;55.87;;;8.80;;
18084;SDS011;9169;44.492;11.372;2023-05-19T08:35:52;54.70;;;7.97;;
18084;SDS011;9169;44.492;11.372;2023-05-19T08:38:23;56.33;;;7.80;;
18084;SDS011;9169;44.492;11.372;2023-05-19T08:40:53;57.07;;;8.70;;
18084;SDS011;9169;44.492;11.372;2023-05-19T08:43:23;56.87;;;8.47;;
18084;SDS011;9169;44.492;11.372;2023-05-19T08:45:52;57.97;;;8.60;;
18084;SDS011;9169;44.492;11.372;2023-05-19T08:48:21;60.77;;;8.60;;
18084;SDS011;9169;44.492;11.372;2023-05-19T08:50:56;53.70;;;7.70;;
18084;SDS011;9169;44.492;11.372;2023-05-19T08:53:39;58.20;;;7.40;;
18084;SDS011;9169;44.492;11.372;2023-05-19T08:56:13;53.67;;;7.37;;
18084;SDS011;9169;44.492;11.372;2023-05-19T08:58:47;53.60;;;6.93;;
18084;SDS011;9169;44.492;11.372;2023-05-19T09:01:17;55.47;;;7.47;;
18084;SDS011;9169;44.492;11.372;2023-05-19T09:03:46;55.37;;;7.27;;
18084;SDS011;9169;44.492;11.372;2023-05-19T09:06:17;57.30;;;7.50;;
18084;SDS011;9169;44.492;11.372;2023-05-19T09:08:47;56.33;;;7.90;;
18084;SDS011;9169;44.492;11.372;2023-05-19T09:11:15;52.77;;;7.13;;
18084;SDS011;9169;44.492;11.372;2023-05-19T09:13:44;56.30;;;7.00;;
18084;SDS011;9169;44.492;11.372;2023-05-19T09:16:12;55.70;;;7.80;;
18084;SDS011;9169;44.492;11.372;2023-05-19T09:18:43;56.37;;;8.23;;
18084;SDS011;9169;44.492;11.372;2023-05-19T09:21:27;54.10;;;8.10;;
18084;SDS011;9169;44.492;11.372;2023-05-19T09:24:02;53.17;;;7.37;;
18084;SDS011;9169;44.492;11.372;2023-05-19T09:26:35;54.47;;;8.13;;
18084;SDS011;9169;44.492;11.372;2023-05-19T09:29:11;53.73;;;7.30;;
18084;SDS011;9169;44.492;11.372;2023-05-19T09:31:46;54.30;;;6.93;;
18084;SDS011;9169;44.492;11.372;2023-05-19T09:34:17;55.90;;;8.90;;
18084;SDS011;9169;44.492;11.372;2023-05-19T09:36:48;54.70;;;7.87;;
18084;SDS011;9169;44.492;11.372;2023-05-19T09:39:19;56.37;;;8.37;;
18084;SDS011;9169;44.492;11.372;2023-05-19T09:41:49;53.50;;;7.63;;
18084;SDS011;9169;44.492;11.372;2023-05-19T09:44:22;57.23;;;9.77;;
18084;SDS011;9169;44.492;11.372;2023-05-19T09:46:54;54.93;;;7.77;;
18084;SDS011;9169;44.492;11.372;2023-05-19T09:49:26;58.20;;;8.03;;
18084;SDS011;9169;44.492;11.372;2023-05-19T09:51:57;57.20;;;7.37;;
18084;SDS011;9169;44.492;11.372;2023-05-19T09:54:27;58.27;;;7.27;;
18084;SDS011;9169;44.492;11.372;2023-05-19T09:56:59;58.93;;;8.27;;
18084;SDS011;9169;44.492;11.372;2023-05-19T09:59:29;55.90;;;7.93;;
18084;SDS011;9169;44.492;11.372;2023-05-19T10:01:59;57.13;;;8.37;;
18084;SDS011;9169;44.492;11.372;2023-05-19T10:04:29;55.80;;;8.00;;
18084;SDS011;9169;44.492;11.372;2023-05-19T10:06:59;56.43;;;6.50;;
18084;SDS011;9169;44.492;11.372;2023-05-19T10:09:31;56.87;;;7.97;;
18084;SDS011;9169;44.492;11.372;2023-05-19T10:12:03;57.37;;;8.80;;
18084;SDS011;9169;44.492;11.372;2023-05-19T10:14:33;55.10;;;8.20;;
18084;SDS011;9169;44.492;11.372;2023-05-19T10:17:02;59.73;;;8.73;;
18084;SDS011;9169;44.492;11.372;2023-05-19T10:19:32;55.07;;;7.97;;
18084;SDS011;9169;44.492;11.372;2023-05-19T10:22:05;54.67;;;8.13;;
18084;SDS011;9169;44.492;11.372;2023-05-19T10:24:34;53.30;;;8.00;;
18084;SDS011;9169;44.492;11.372;2023-05-19T10:27:03;54.67;;;8.17;;
18084;SDS011;9169;44.492;11.372;2023-05-19T10:29:36;55.70;;;7.10;;
18084;SDS011;9169;44.492;11.372;2023-05-19T10:32:09;56.37;;;7.63;;
18084;SDS011;9169;44.492;11.372;2023-05-19T10:34:47;58.83;;;8.00;;
18084;SDS011;9169;44.492;11.372;2023-05-19T10:37:44;55.13;;;7.43;;
18084;SDS011;9169;44.492;11.372;2023-05-19T10:40:20;55.53;;;7.63;;
18084;SDS011;9169;44.492;11.372;2023-05-19T10:42:56;54.80;;;6.67;;
18084;SDS011;9169;44.492;11.372;2023-05-19T10:45:44;54.77;;;6.37;;
18084;SDS011;9169;44.492;11.372;2023-05-19T10:48:15;53.67;;;6.83;;
18084;SDS011;9169;44.492;11.372;2023-05-19T10:50:46;51.87;;;5.93;;
18084;SDS011;9169;44.492;11.372;2023-05-19T10:53:21;54.63;;;6.60;;
18084;SDS011;9169;44.492;11.372;2023-05-19T10:55:57;55.53;;;5.87;;
18084;SDS011;9169;44.492;11.372;2023-05-19T10:58:35;52.27;;;5.43;;
18084;SDS011;9169;44.492;11.372;2023-05-19T11:01:06;55.93;;;5.97;;
18084;SDS011;9169;44.492;11.372;2023-05-19T11:03:41;58.50;;;6.40;;
18084;SDS011;9169;44.492;11.372;2023-05-19T11:06:16;54.23;;;5.00;;
18084;SDS011;9169;44.492;11.372;2023-05-19T11:08:52;53.73;;;5.50;;
18084;SDS011;9169;44.492;11.372;2023-05-19T11:11:22;52.13;;;4.70;;
18084;SDS011;9169;44.492;11.372;2023-05-19T11:13:51;52.47;;;5.50;;
18084;SDS011;9169;44.492;11.372;2023-05-19T11:16:26;54.43;;;5.03;;
18084;SDS011;9169;44.492;11.372;2023-05-19T11:18:57;54.77;;;5.30;;
18084;SDS011;9169;44.492;11.372;2023-05-19T11:21:39;55.67;;;5.67;;
18084;SDS011;9169;44.492;11.372;2023-05-19T11:24:10;53.67;;;6.20;;
18084;SDS011;9169;44.492;11.372;2023-05-19T11:27:18;50.93;;;5.30;;
18084;SDS011;9169;44.492;11.372;2023-05-19T11:29:48;52.60;;;5.20;;
18084;SDS011;9169;44.492;11.372;2023-05-19T11:32:18;55.90;;;5.70;;
18084;SDS011;9169;44.492;11.372;2023-05-19T11:34:47;51.30;;;5.13;;
18084;SDS011;9169;44.492;11.372;2023-05-19T11:37:16;50.70;;;4.63;;
18084;SDS011;9169;44.492;11.372;2023-05-19T11:39:46;54.30;;;5.60;;
18084;SDS011;9169;44.492;11.372;2023-05-19T11:42:14;51.20;;;4.90;;
18084;SDS011;9169;44.492;11.372;2023-05-19T11:44:43;53.27;;;4.87;;
18084;SDS011;9169;44.492;11.372;2023-05-19T11:47:12;53.53;;;4.80;;
18084;SDS011;9169;44.492;11.372;2023-05-19T11:49:42;52.23;;;4.90;;
18084;SDS011;9169;44.492;11.372;2023-05-19T11:52:11;52.53;;;4.93;;
18084;SDS011;9169;44.492;11.372;2023-05-19T11:54:40;53.77;;;5.37;;
18084;SDS011;9169;44.492;11.372;2023-05-19T11:57:10;54.40;;;4.60;;
18084;SDS011;9169;44.492;11.372;2023-05-19T11:59:39;53.10;;;4.50;;
18084;SDS011;9169;44.492;11.372;2023-05-19T12:02:15;50.97;;;4.17;;
18084;SDS011;9169;44.492;11.372;2023-05-19T12:04:44;56.57;;;5.40;;
18084;SDS011;9169;44.492;11.372;2023-05-19T12:07:14;54.00;;;4.40;;
18084;SDS011;9169;44.492;11.372;2023-05-19T12:09:44;53.87;;;4.97;;
18084;SDS011;9169;44.492;11.372;2023-05-19T12:12:14;51.00;;;3.80;;
18084;SDS011;9169;44.492;11.372;2023-05-19T12:14:45;54.90;;;4.20;;
18084;SDS011;9169;44.492;11.372;2023-05-19T12:17:14;53.23;;;4.40;;
18084;SDS011;9169;44.492;11.372;2023-05-19T12:19:45;53.97;;;4.13;;
18084;SDS011;9169;44.492;11.372;2023-05-19T12:22:14;58.07;;;4.37;;
18084;SDS011;9169;44.492;11.372;2023-05-19T12:24:44;59.77;;;4.80;;
18084;SDS011;9169;44.492;11.372;2023-05-19T12:27:17;54.83;;;3.80;;
18084;SDS011;9169;44.492;11.372;2023-05-19T12:29:50;54.80;;;4.20;;
18084;SDS011;9169;44.492;11.372;2023-05-19T12:32:21;55.00;;;4.73;;
18084;SDS011;9169;44.492;11.372;2023-05-19T12:34:51;53.57;;;4.93;;
18084;SDS011;9169;44.492;11.372;2023-05-19T12:37:19;57.50;;;4.63;;
18084;SDS011;9169;44.492;11.372;2023-05-19T12:39:48;54.20;;;5.63;;
18084;SDS011;9169;44.492;11.372;2023-05-19T12:42:18;56.03;;;5.70;;
18084;SDS011;9169;44.492;11.372;2023-05-19T12:44:47;57.73;;;5.37;;
18084;SDS011;9169;44.492;11.372;2023-05-19T12:47:18;53.30;;;5.27;;
18084;SDS011;9169;44.492;11.372;2023-05-19T12:49:54;53.20;;;4.70;;
18084;SDS011;9169;44.492;11.372;2023-05-19T12:52:23;52.97;;;4.47;;
18084;SDS011;9169;44.492;11.372;2023-05-19T12:54:56;56.63;;;5.03;;
18084;SDS011;9169;44.492;11.372;2023-05-19T12:57:26;53.07;;;4.40;;
18084;SDS011;9169;44.492;11.372;2023-05-19T13:00:00;55.73;;;4.03;;
18084;SDS011;9169;44.492;11.372;2023-05-19T13:02:32;54.73;;;4.23;;
18084;SDS011;9169;44.492;11.372;2023-05-19T13:05:02;51.20;;;4.40;;
18084;SDS011;9169;44.492;11.372;2023-05-19T13:07:31;51.73;;;3.97;;
18084;SDS011;9169;44.492;11.372;2023-05-19T13:10:02;53.20;;;4.23;;
18084;SDS011;9169;44.492;11.372;2023-05-19T13:12:32;50.67;;;3.87;;
18084;SDS011;9169;44.492;11.372;2023-05-19T13:15:00;50.27;;;3.90;;
18084;SDS011;9169;44.492;11.372;2023-05-19T13:17:29;51.80;;;4.17;;
18084;SDS011;9169;44.492;11.372;2023-05-19T13:19:57;52.67;;;3.60;;
18084;SDS011;9169;44.492;11.372;2023-05-19T13:22:26;52.30;;;3.63;;
18084;SDS011;9169;44.492;11.372;2023-05-19T13:24:54;50.70;;;3.23;;
18084;SDS011;9169;44.492;11.372;2023-05-19T13:27:24;52.10;;;3.37;;
18084;SDS011;9169;44.492;11.372;2023-05-19T13:29:54;54.13;;;3.77;;
18084;SDS011;9169;44.492;11.372;2023-05-19T13:32:23;49.87;;;3.20;;
18084;SDS011;9169;44.492;11.372;2023-05-19T13:34:52;53.80;;;4.23;;
18084;SDS011;9169;44.492;11.372;2023-05-19T13:37:20;57.20;;;4.10;;
18084;SDS011;9169;44.492;11.372;2023-05-19T13:39:49;51.63;;;3.93;;
18084;SDS011;9169;44.492;11.372;2023-05-19T13:42:17;49.20;;;4.00;;
18084;SDS011;9169;44.492;11.372;2023-05-19T13:44:46;54.00;;;4.10;;
18084;SDS011;9169;44.492;11.372;2023-05-19T13:47:16;50.80;;;3.53;;
18084;SDS011;9169;44.492;11.372;2023-05-19T13:49:44;48.67;;;3.10;;
18084;SDS011;9169;44.492;11.372;2023-05-19T13:52:13;49.80;;;3.50;;
18084;SDS011;9169;44.492;11.372;2023-05-19T13:54:42;46.60;;;3.20;;
18084;SDS011;9169;44.492;11.372;2023-05-19T13:57:10;45.50;;;2.80;;
18084;SDS011;9169;44.492;11.372;2023-05-19T13:59:39;44.83;;;3.20;;
18084;SDS011;9169;44.492;11.372;2023-05-19T14:02:16;45.17;;;3.37;;
18084;SDS011;9169;44.492;11.372;2023-05-19T14:04:45;46.33;;;2.70;;
18084;SDS011;9169;44.492;11.372;2023-05-19T14:07:14;47.57;;;3.00;;
18084;SDS011;9169;44.492;11.372;2023-05-19T14:09:43;46.37;;;3.53;;
18084;SDS011;9169;44.492;11.372;2023-05-19T14:12:11;44.27;;;3.10;;
18084;SDS011;9169;44.492;11.372;2023-05-19T14:14:41;41.20;;;2.50;;
18084;SDS011;9169;44.492;11.372;2023-05-19T14:17:09;40.57;;;2.63;;
18084;SDS011;9169;44.492;11.372;2023-05-19T14:19:39;42.73;;;3.13;;
18084;SDS011;9169;44.492;11.372;2023-05-19T14:22:08;44.73;;;5.80;;
18084;SDS011;9169;44.492;11.372;2023-05-19T14:24:38;40.93;;;3.00;;
18084;SDS011;9169;44.492;11.372;2023-05-19T14:27:08;41.00;;;2.93;;
18084;SDS011;9169;44.492;11.372;2023-05-19T14:29:36;42.60;;;3.20;;
18084;SDS011;9169;44.492;11.372;2023-05-19T14:32:05;42.60;;;3.30;;
18084;SDS011;9169;44.492;11.372;2023-05-19T14:34:34;42.50;;;3.00;;
18084;SDS011;9169;44.492;11.372;2023-05-19T14:37:04;41.73;;;2.70;;
18084;SDS011;9169;44.492;11.372;2023-05-19T14:39:33;43.53;;;2.73;;
18084;SDS011;9169;44.492;11.372;2023-05-19T14:42:01;36.90;;;2.93;;
18084;SDS011;9169;44.492;11.372;2023-05-19T14:44:30;39.77;;;2.80;;
18084;SDS011;9169;44.492;11.372;2023-05-19T14:46:59;37.73;;;2.80;;
18084;SDS011;9169;44.492;11.372;2023-05-19T14:49:28;38.30;;;2.77;;
18084;SDS011;9169;44.492;11.372;2023-05-19T14:51:57;40.43;;;6.87;;
18084;SDS011;9169;44.492;11.372;2023-05-19T14:54:27;37.27;;;3.33;;